createdAt,value
2022-08-26T00:01:56.486Z,101813.09
2022-08-26T00:04:25.496Z,101815.19
2022-08-26T00:06:54.175Z,101810.34
2022-08-26T00:09:21.834Z,101808.44
2022-08-26T00:11:49.362Z,101812.25
2022-08-26T00:14:17.908Z,101810.75
2022-08-26T00:16:48.238Z,101803.97
2022-08-26T00:19:18.076Z,101813.09
2022-08-26T00:21:45.721Z,101816.28
2022-08-26T00:24:13.359Z,101811.81
2022-08-26T00:26:41.306Z,101814.31
2022-08-26T00:29:08.714Z,101813.69
2022-08-26T00:31:36.719Z,101811.50
2022-08-26T00:34:04.426Z,101812.97
2022-08-26T00:36:32.282Z,101819.28
2022-08-26T00:38:59.197Z,101821.59
2022-08-26T00:41:26.549Z,101813.72
2022-08-26T00:43:54.635Z,101813.72
2022-08-26T00:46:25.381Z,101803.31
2022-08-26T00:49:05.574Z,101803.25
2022-08-26T00:51:54.460Z,101790.88
2022-08-26T00:54:27.315Z,101788.25
2022-08-26T00:56:54.122Z,101790.28
2022-08-26T00:59:22.665Z,101803.16
2022-08-26T01:01:49.635Z,101796.13
2022-08-26T01:04:21.339Z,101791.22
2022-08-26T01:06:50.912Z,101797.09
2022-08-26T01:09:19.391Z,101802.44
2022-08-26T01:11:49.781Z,101806.50
2022-08-26T01:14:20.135Z,101798.03
2022-08-26T01:16:48.404Z,101810.75
2022-08-26T01:19:42.724Z,101800.31
2022-08-26T01:22:28.097Z,101794.75
2022-08-26T01:24:56.115Z,101794.25
2022-08-26T01:27:24.434Z,101795.41
2022-08-26T01:29:51.787Z,101797.91
2022-08-26T01:32:23.448Z,101801.63
2022-08-26T01:34:50.940Z,101806.84
2022-08-26T01:37:26.341Z,101805.72
2022-08-26T01:39:55.345Z,101809.06
2022-08-26T01:42:24.467Z,101811.53
2022-08-26T01:44:58.618Z,101810.22
2022-08-26T01:47:30.077Z,101815.91
2022-08-26T01:50:00.038Z,101812.13
2022-08-26T01:52:30.208Z,101815.38
2022-08-26T01:54:59.542Z,101825.38
2022-08-26T01:57:27.576Z,101822.31
2022-08-26T01:59:58.452Z,101826.19
2022-08-26T02:02:25.477Z,101827.31
2022-08-26T02:05:06.064Z,101831.00
2022-08-26T02:07:34.078Z,101833.38
2022-08-26T02:10:00.988Z,101834.88
2022-08-26T02:12:28.557Z,101838.72
2022-08-26T02:14:58.995Z,101839.59
2022-08-26T02:17:39.867Z,101839.41
2022-08-26T02:20:13.354Z,101842.63
2022-08-26T02:22:42.728Z,101847.47
2022-08-26T02:25:40.309Z,101848.06
2022-08-26T02:28:07.784Z,101847.19
2022-08-26T02:30:35.261Z,101846.56
2022-08-26T02:33:03.990Z,101850.06
2022-08-26T02:35:32.861Z,101849.41
2022-08-26T02:38:00.423Z,101846.19
2022-08-26T02:40:31.064Z,101845.81
2022-08-26T02:42:58.602Z,101848.19
2022-08-26T02:45:28.967Z,101844.09
2022-08-26T02:47:58.142Z,101846.38
2022-08-26T02:50:27.462Z,101846.50
2022-08-26T02:52:54.503Z,101855.34
2022-08-26T02:55:21.161Z,101847.69
2022-08-26T02:57:52.540Z,101849.75
2022-08-26T03:00:19.597Z,101848.25
2022-08-26T03:02:46.349Z,101843.31
2022-08-26T03:05:13.563Z,101838.84
2022-08-26T03:07:40.419Z,101847.97
2022-08-26T03:10:08.874Z,101836.09
2022-08-26T03:12:36.638Z,101844.00
2022-08-26T03:15:17.621Z,101848.25
2022-08-26T03:17:47.898Z,101855.47
2022-08-26T03:20:17.428Z,101846.16
2022-08-26T03:22:45.006Z,101849.38
2022-08-26T03:25:15.386Z,101842.44
2022-08-26T03:27:42.979Z,101846.91
2022-08-26T03:30:29.972Z,101849.66
2022-08-26T03:32:57.259Z,101841.19
2022-08-26T03:35:24.096Z,101837.59
2022-08-26T03:37:52.646Z,101837.59
2022-08-26T03:40:20.555Z,101840.16
2022-08-26T03:42:47.855Z,101831.25
2022-08-26T03:45:16.831Z,101837.13
2022-08-26T03:47:44.719Z,101834.31
2022-08-26T03:50:14.456Z,101834.03
2022-08-26T03:52:44.022Z,101831.38
2022-08-26T03:55:11.522Z,101842.50
2022-08-26T03:57:38.197Z,101848.59
2022-08-26T04:00:07.323Z,101844.19
2022-08-26T04:02:34.213Z,101841.13
2022-08-26T04:05:00.911Z,101844.47
2022-08-26T04:07:28.261Z,101839.56
2022-08-26T04:09:59.027Z,101846.19
2022-08-26T04:12:25.904Z,101840.38
2022-08-26T04:14:53.874Z,101841.63
2022-08-26T04:17:24.994Z,101832.50
2022-08-26T04:19:54.909Z,101835.66
2022-08-26T04:22:24.953Z,101839.63
2022-08-26T04:24:52.333Z,101836.69
2022-08-26T04:27:20.814Z,101829.25
2022-08-26T04:29:51.462Z,101838.97
2022-08-26T04:32:21.839Z,101837.38
2022-08-26T04:34:48.547Z,101832.59
2022-08-26T04:37:16.458Z,101837.97
2022-08-26T04:39:44.923Z,101837.50
2022-08-26T04:42:13.945Z,101840.91
2022-08-26T04:44:41.189Z,101841.28
2022-08-26T04:47:08.082Z,101845.56
2022-08-26T04:49:35.791Z,101846.97
2022-08-26T04:52:03.685Z,101853.03
2022-08-26T04:54:31.841Z,101851.34
2022-08-26T04:56:59.237Z,101858.44
2022-08-26T04:59:26.260Z,101859.63
2022-08-26T05:01:57.491Z,101854.34
2022-08-26T05:04:24.448Z,101852.63
2022-08-26T05:06:54.835Z,101858.47
2022-08-26T05:09:24.807Z,101857.13
2022-08-26T05:11:52.399Z,101859.03
2022-08-26T05:14:21.449Z,101862.78
2022-08-26T05:16:49.350Z,101856.66
2022-08-26T05:19:17.217Z,101858.50
2022-08-26T05:21:46.411Z,101853.22
2022-08-26T05:24:14.660Z,101855.97
2022-08-26T05:26:41.756Z,101858.69
2022-08-26T05:29:11.567Z,101862.47
2022-08-26T05:31:38.560Z,101867.28
2022-08-26T05:34:06.037Z,101861.81
2022-08-26T05:36:35.970Z,101868.13
2022-08-26T05:39:05.931Z,101871.94
2022-08-26T05:41:36.574Z,101870.03
2022-08-26T05:44:08.897Z,101875.72
2022-08-26T05:46:37.164Z,101878.94
2022-08-26T05:49:05.219Z,101880.28
2022-08-26T05:51:32.758Z,101887.13
2022-08-26T05:54:02.199Z,101884.38
2022-08-26T05:56:30.669Z,101888.66
2022-08-26T05:58:58.441Z,101887.44
2022-08-26T06:01:27.882Z,101887.94
2022-08-26T06:04:01.646Z,101887.06
2022-08-26T06:06:34.395Z,101891.34
2022-08-26T06:09:05.320Z,101893.06
2022-08-26T06:11:33.427Z,101897.34
2022-08-26T06:14:06.171Z,101902.84
2022-08-26T06:16:36.339Z,101908.16
2022-08-26T06:19:11.028Z,101904.53
2022-08-26T06:21:40.298Z,101915.50
2022-08-26T06:24:28.609Z,101907.44
2022-08-26T06:26:57.558Z,101903.69
2022-08-26T06:29:26.164Z,101916.75
2022-08-26T06:31:54.397Z,101920.69
2022-08-26T06:34:29.624Z,101914.88
2022-08-26T06:36:59.688Z,101916.59
2022-08-26T06:39:28.120Z,101920.88
2022-08-26T06:42:00.077Z,101917.22
2022-08-26T06:44:27.274Z,101916.66
2022-08-26T06:46:54.680Z,101927.84
2022-08-26T06:49:27.240Z,101932.66
2022-08-26T06:51:58.506Z,101934.72
2022-08-26T06:54:26.076Z,101937.13
2022-08-26T06:56:52.898Z,101939.88
2022-08-26T06:59:19.703Z,101948.75
2022-08-26T07:01:46.753Z,101940.53
2022-08-26T07:04:20.149Z,101947.75
2022-08-26T07:06:52.696Z,101944.63
2022-08-26T07:09:21.334Z,101944.63
2022-08-26T07:11:48.296Z,101960.75
2022-08-26T07:14:17.045Z,101949.50
2022-08-26T07:16:48.277Z,101953.44
2022-08-26T07:19:15.571Z,101957.38
2022-08-26T07:21:44.250Z,101946.88
2022-08-26T07:24:11.380Z,101954.56
2022-08-26T07:26:43.115Z,101954.22
2022-08-26T07:29:12.668Z,101956.97
2022-08-26T07:31:42.352Z,101963.63
2022-08-26T07:34:10.625Z,101968.59
2022-08-26T07:36:37.626Z,101956.41
2022-08-26T07:39:05.044Z,101969.66
2022-08-26T07:41:31.805Z,101970.63
2022-08-26T07:43:59.720Z,101974.41
2022-08-26T07:46:27.081Z,101968.44
2022-08-26T07:48:56.739Z,101967.06
2022-08-26T07:51:23.743Z,101965.84
2022-08-26T07:53:53.072Z,101974.78
2022-08-26T07:56:21.819Z,101971.50
2022-08-26T07:58:51.411Z,101978.03
2022-08-26T08:01:24.353Z,101974.78
2022-08-26T08:03:54.203Z,101975.44
2022-08-26T08:06:27.290Z,101974.91
2022-08-26T08:08:55.495Z,101971.59
2022-08-26T08:11:23.247Z,101976.44
2022-08-26T08:13:52.381Z,101981.59
2022-08-26T08:16:28.458Z,101982.09
2022-08-26T08:18:59.213Z,101978.19
2022-08-26T08:21:28.945Z,101982.66
2022-08-26T08:23:57.465Z,101983.38
2022-08-26T08:26:25.883Z,101980.44
2022-08-26T08:28:57.393Z,101982.00
2022-08-26T08:31:56.759Z,101981.28
2022-08-26T08:34:17.117Z,101977.16
2022-08-26T08:36:46.489Z,101983.19
2022-08-26T08:39:13.949Z,101989.00
2022-08-26T08:41:56.110Z,101984.38
2022-08-26T08:47:04.119Z,101996.91
2022-08-26T08:49:33.402Z,101990.56
2022-08-26T08:52:12.188Z,102005.50
2022-08-26T08:54:38.916Z,101997.09
2022-08-26T08:57:18.139Z,101996.22
2022-08-26T08:59:59.496Z,101998.09
2022-08-26T09:02:50.407Z,101999.13
2022-08-26T09:05:32.071Z,101990.88
2022-08-26T09:08:12.175Z,101998.78
2022-08-26T09:10:43.805Z,101997.75
2022-08-26T09:13:16.821Z,102001.19
2022-08-26T09:16:10.120Z,101997.34
2022-08-26T09:18:39.893Z,101994.69
2022-08-26T09:21:12.553Z,102002.88
2022-08-26T09:23:42.783Z,101998.72
2022-08-26T09:26:28.743Z,102007.94
2022-08-26T09:29:05.308Z,101996.78
2022-08-26T09:31:34.276Z,102011.06
2022-08-26T09:34:17.391Z,102009.16
2022-08-26T09:36:47.721Z,102017.53
2022-08-26T09:39:37.752Z,102013.25
2022-08-26T09:42:22.634Z,102021.81
2022-08-26T09:44:57.035Z,102022.97
2022-08-26T09:47:52.625Z,102026.94
2022-08-26T09:50:39.728Z,102024.84
2022-08-26T09:53:13.056Z,102026.13
2022-08-26T09:55:42.668Z,102026.50
2022-08-26T09:58:15.397Z,102026.13
2022-08-26T10:01:03.693Z,102018.78
2022-08-26T10:03:34.629Z,102024.53
2022-08-26T10:06:20.944Z,102025.34
2022-08-26T10:09:00.058Z,102015.63
2022-08-26T10:11:54.062Z,102020.72
2022-08-26T10:14:31.211Z,102026.53
2022-08-26T10:17:25.121Z,102019.34
2022-08-26T10:19:57.952Z,102030.22
2022-08-26T10:22:30.794Z,102029.00
2022-08-26T10:25:02.724Z,102030.13
2022-08-26T10:27:53.850Z,102030.41
2022-08-26T10:30:27.738Z,102032.31
2022-08-26T10:33:06.759Z,102035.75
2022-08-26T10:35:37.152Z,102030.25
2022-08-26T10:38:17.357Z,102037.94
2022-08-26T10:40:59.131Z,102028.16
2022-08-26T10:43:31.043Z,102032.19
2022-08-26T10:46:03.909Z,102039.03
2022-08-26T10:48:48.551Z,102037.44
2022-08-26T10:51:19.584Z,102034.19
2022-08-26T10:54:05.352Z,102040.72
2022-08-26T10:56:44.100Z,102035.28
2022-08-26T10:59:43.755Z,102036.59
2022-08-26T11:02:33.811Z,102047.47
2022-08-26T11:05:04.602Z,102042.28
2022-08-26T11:07:37.532Z,102040.97
2022-08-26T11:10:31.790Z,102035.06
2022-08-26T11:13:07.237Z,102040.78
2022-08-26T11:15:40.270Z,102038.16
2022-08-26T11:18:12.608Z,102040.09
2022-08-26T11:20:44.374Z,102038.97
2022-08-26T11:23:12.621Z,102045.97
2022-08-26T11:26:11.006Z,102037.78
2022-08-26T11:28:44.153Z,102030.41
2022-08-26T11:31:38.429Z,102037.38
2022-08-26T11:34:10.930Z,102040.00
2022-08-26T11:36:45.688Z,102041.59
2022-08-26T11:39:28.884Z,102030.50
2022-08-26T11:42:35.780Z,102045.91
2022-08-26T11:45:19.394Z,102042.66
2022-08-26T11:47:46.829Z,102041.25
2022-08-26T11:50:23.598Z,102043.41
2022-08-26T11:52:55.020Z,102044.59
2022-08-26T11:55:23.252Z,102038.19
2022-08-26T11:57:57.585Z,102033.56
2022-08-26T12:00:33.554Z,102038.84
2022-08-26T12:03:05.248Z,102046.88
2022-08-26T12:05:38.306Z,102041.72
2022-08-26T12:08:11.487Z,102042.09
2022-08-26T12:10:38.480Z,102044.50
2022-08-26T12:13:07.312Z,102048.00
2022-08-26T12:15:35.852Z,102050.44
2022-08-26T12:18:29.180Z,102052.00
2022-08-26T12:20:59.782Z,102054.31
2022-08-26T12:23:36.803Z,102053.03
2022-08-26T12:26:23.349Z,102046.13
2022-08-26T12:29:12.762Z,102056.94
2022-08-26T12:31:48.438Z,102055.09
2022-08-26T12:34:18.142Z,102051.69
2022-08-26T12:37:03.736Z,102053.56
2022-08-26T12:39:37.400Z,102054.66
2022-08-26T12:42:21.838Z,102058.41
2022-08-26T12:44:58.533Z,102063.25
2022-08-26T12:47:41.917Z,102066.38
2022-08-26T12:50:16.507Z,102057.66
2022-08-26T12:52:51.716Z,102062.34
2022-08-26T12:55:23.841Z,102063.00
2022-08-26T12:57:50.730Z,102054.97
2022-08-26T13:00:28.334Z,102047.19
2022-08-26T13:02:55.403Z,102054.88
2022-08-26T13:05:35.860Z,102051.69
2022-08-26T13:08:10.625Z,102047.00
2022-08-26T13:10:40.139Z,102050.75
2022-08-26T13:13:07.092Z,102056.44
2022-08-26T13:15:34.054Z,102057.00
2022-08-26T13:18:03.431Z,102062.91
2022-08-26T13:20:30.695Z,102047.66
2022-08-26T13:22:58.965Z,102051.81
2022-08-26T13:25:35.813Z,102057.88
2022-08-26T13:28:02.630Z,102056.16
2022-08-26T13:30:29.370Z,102053.59
2022-08-26T13:33:00.675Z,102051.91
2022-08-26T13:35:28.959Z,102053.34
2022-08-26T13:37:55.733Z,102050.53
2022-08-26T13:40:26.173Z,102052.47
2022-08-26T13:42:52.925Z,102054.88
2022-08-26T13:45:19.681Z,102047.84
2022-08-26T13:47:46.663Z,102044.66
2022-08-26T13:50:13.405Z,102044.91
2022-08-26T13:52:40.045Z,102041.22
2022-08-26T13:55:08.099Z,102052.44
2022-08-26T13:57:34.922Z,102060.38
2022-08-26T14:00:01.771Z,102048.34
2022-08-26T14:02:28.911Z,102047.78
2022-08-26T14:04:56.050Z,102054.75
2022-08-26T14:07:23.485Z,102052.78
2022-08-26T14:09:50.717Z,102055.28
2022-08-26T14:12:17.780Z,102050.66
2022-08-26T14:14:45.097Z,102049.03
2022-08-26T14:17:17.283Z,102041.84
2022-08-26T14:19:46.107Z,102043.16
2022-08-26T14:22:15.441Z,102036.03
2022-08-26T14:24:42.303Z,102044.22
2022-08-26T14:27:08.976Z,102040.66
2022-08-26T14:29:35.720Z,102050.00
2022-08-26T14:32:10.065Z,102050.84
2022-08-26T14:34:37.428Z,102050.59
2022-08-26T14:37:07.443Z,102048.00
2022-08-26T14:39:36.118Z,102034.59
2022-08-26T14:42:02.899Z,102036.91
2022-08-26T14:44:32.609Z,102036.69
2022-08-26T14:47:02.594Z,102041.16
2022-08-26T14:49:32.253Z,102051.19
2022-08-26T14:51:59.622Z,102039.09
2022-08-26T14:54:26.775Z,102039.25
2022-08-26T14:56:56.720Z,102040.94
2022-08-26T14:59:32.527Z,102037.31
2022-08-26T15:02:00.706Z,102027.34
2022-08-26T15:04:28.438Z,102034.31
2022-08-26T15:06:58.816Z,102035.41
2022-08-26T15:09:27.027Z,102036.66
2022-08-26T15:11:53.913Z,102034.72
2022-08-26T15:14:22.050Z,102038.09
2022-08-26T15:16:50.612Z,102033.81
2022-08-26T15:19:17.750Z,102035.06
2022-08-26T15:21:45.789Z,102028.50
2022-08-26T15:24:13.886Z,102030.47
2022-08-26T15:26:41.065Z,102031.97
2022-08-26T15:29:07.966Z,102023.28
2022-08-26T15:31:35.063Z,102024.22
2022-08-26T15:34:12.130Z,102024.28
2022-08-26T15:36:44.787Z,102022.41
2022-08-26T15:39:12.306Z,102023.09
2022-08-26T15:41:39.664Z,102025.88
2022-08-26T15:44:07.916Z,102031.25
2022-08-26T15:46:36.411Z,102021.44
2022-08-26T15:49:04.716Z,102022.72
2022-08-26T15:51:35.371Z,102022.69
2022-08-26T15:54:12.570Z,102019.91
2022-08-26T15:56:39.322Z,102020.13
2022-08-26T15:59:08.156Z,102019.00
2022-08-26T16:01:35.710Z,102015.63
2022-08-26T16:04:03.310Z,102007.25
2022-08-26T16:06:32.594Z,102011.75
2022-08-26T16:08:59.882Z,102013.91
2022-08-26T16:11:27.640Z,102010.38
2022-08-26T16:13:55.160Z,102013.94
2022-08-26T16:16:22.565Z,102002.34
2022-08-26T16:18:49.736Z,102008.38
2022-08-26T16:21:21.659Z,102004.66
2022-08-26T16:23:49.080Z,102003.50
2022-08-26T16:26:21.038Z,102001.50
2022-08-26T16:28:47.994Z,102004.81
2022-08-26T16:31:15.581Z,102006.06
2022-08-26T16:33:42.355Z,102008.78
2022-08-26T16:36:09.713Z,102006.75
2022-08-26T16:38:37.876Z,101993.28
2022-08-26T16:41:05.575Z,102010.03
2022-08-26T16:43:32.326Z,101991.47
2022-08-26T16:45:59.585Z,101986.59
2022-08-26T16:48:27.563Z,101986.81
2022-08-26T16:50:55.725Z,101987.28
2022-08-26T16:53:23.314Z,101987.13
2022-08-26T16:55:51.328Z,101985.66
2022-08-26T16:58:22.003Z,101986.88
2022-08-26T17:00:49.697Z,101994.94
2022-08-26T17:03:16.965Z,101991.66
2022-08-26T17:05:43.707Z,101986.72
2022-08-26T17:08:11.190Z,101995.56
2022-08-26T17:10:38.097Z,101998.41
2022-08-26T17:13:05.082Z,101998.25
2022-08-26T17:15:32.376Z,101990.38
2022-08-26T17:17:59.209Z,101995.69
2022-08-26T17:20:26.746Z,101995.50
2022-08-26T17:22:55.463Z,102002.91
2022-08-26T17:25:28.466Z,101999.28
2022-08-26T17:30:23.935Z,102001.19
2022-08-26T17:32:50.883Z,101996.50
2022-08-26T17:35:18.156Z,102005.25
2022-08-26T17:37:45.212Z,102009.47
2022-08-26T17:40:15.827Z,102007.53
2022-08-26T17:42:42.870Z,102004.09
2022-08-26T17:45:11.065Z,102000.47
2022-08-26T17:47:38.668Z,102001.53
2022-08-26T17:50:09.370Z,102012.78
2022-08-26T17:52:37.738Z,102011.69
2022-08-26T17:55:06.075Z,102003.78
2022-08-26T17:57:33.326Z,102010.41
2022-08-26T18:00:11.714Z,102015.25
2022-08-26T18:02:39.165Z,102016.91
2022-08-26T18:05:08.366Z,102010.94
2022-08-26T18:07:43.993Z,102015.56
2022-08-26T18:10:13.492Z,102019.22
2022-08-26T18:12:41.751Z,102021.88
2022-08-26T18:15:10.559Z,102021.25
2022-08-26T18:17:39.406Z,102017.84
2022-08-26T18:20:11.822Z,102030.78
2022-08-26T18:22:38.550Z,102028.41
2022-08-26T18:25:06.879Z,102026.69
2022-08-26T18:27:35.735Z,102033.56
2022-08-26T18:30:07.060Z,102040.16
2022-08-26T18:32:33.823Z,102035.28
2022-08-26T18:35:00.744Z,102038.69
2022-08-26T18:37:30.911Z,102035.94
2022-08-26T18:39:59.601Z,102037.38
2022-08-26T18:42:27.324Z,102038.56
2022-08-26T18:44:54.218Z,102046.59
2022-08-26T18:47:21.112Z,102042.94
2022-08-26T18:49:48.853Z,102041.44
2022-08-26T18:52:15.929Z,102045.81
2022-08-26T18:54:43.225Z,102044.25
2022-08-26T18:57:12.672Z,102043.34
2022-08-26T18:59:40.919Z,102048.13
2022-08-26T19:02:09.750Z,102050.41
2022-08-26T19:04:38.739Z,102057.06
2022-08-26T19:07:05.944Z,102062.72
2022-08-26T19:09:33.379Z,102067.31
2022-08-26T19:12:01.685Z,102067.06
2022-08-26T19:14:29.157Z,102061.50
2022-08-26T19:16:56.006Z,102071.41
2022-08-26T19:19:26.393Z,102069.88
2022-08-26T19:21:53.548Z,102077.69
2022-08-26T19:24:21.039Z,102078.47
2022-08-26T19:26:57.587Z,102079.44
2022-08-26T19:29:26.870Z,102084.50
2022-08-26T19:31:53.762Z,102089.53
2022-08-26T19:34:20.841Z,102088.63
2022-08-26T19:36:48.582Z,102092.31
2022-08-26T19:39:15.901Z,102092.91
2022-08-26T19:41:42.881Z,102089.03
2022-08-26T19:44:13.206Z,102098.72
2022-08-26T19:46:40.655Z,102102.50
2022-08-26T19:49:07.811Z,102102.91
2022-08-26T19:51:36.544Z,102103.25
2022-08-26T19:54:04.450Z,102108.47
2022-08-26T19:56:31.271Z,102106.94
2022-08-26T19:58:58.433Z,102105.16
2022-08-26T20:01:25.691Z,102110.75
2022-08-26T20:03:52.948Z,102112.56
2022-08-26T20:06:20.311Z,102117.78
2022-08-26T20:08:47.510Z,102114.06
2022-08-26T20:11:18.861Z,102111.22
2022-08-26T20:13:47.432Z,102121.06
2022-08-26T20:16:15.142Z,102112.50
2022-08-26T20:19:01.946Z,102117.75
2022-08-26T20:21:31.797Z,102115.06
2022-08-26T20:24:02.240Z,102118.91
2022-08-26T20:26:30.875Z,102121.91
2022-08-26T20:28:58.019Z,102118.34
2022-08-26T20:31:26.198Z,102114.78
2022-08-26T20:33:53.650Z,102119.50
2022-08-26T20:36:22.944Z,102127.59
2022-08-26T20:38:50.487Z,102120.94
2022-08-26T20:41:18.356Z,102116.84
2022-08-26T20:43:46.350Z,102127.56
2022-08-26T20:46:18.256Z,102122.56
2022-08-26T20:48:47.120Z,102131.38
2022-08-26T20:51:13.976Z,102121.59
2022-08-26T20:53:43.598Z,102135.00
2022-08-26T20:56:14.655Z,102137.44
2022-08-26T20:58:42.053Z,102136.09
2022-08-26T21:01:18.103Z,102141.09
2022-08-26T21:03:45.578Z,102150.72
2022-08-26T21:06:12.955Z,102143.84
2022-08-26T21:08:43.225Z,102151.44
2022-08-26T21:11:11.515Z,102155.38
2022-08-26T21:14:01.241Z,102149.06
2022-08-26T21:16:28.841Z,102146.63
2022-08-26T21:18:57.540Z,102150.44
2022-08-26T21:21:27.786Z,102147.88
2022-08-26T21:23:55.076Z,102148.03
2022-08-26T21:26:22.685Z,102145.47
2022-08-26T21:28:52.517Z,102140.16
2022-08-26T21:31:22.119Z,102145.81
2022-08-26T21:33:51.035Z,102153.22
2022-08-26T21:36:18.762Z,102138.78
2022-08-26T21:38:46.139Z,102147.03
2022-08-26T21:41:18.732Z,102147.38
2022-08-26T21:43:47.312Z,102158.72
2022-08-26T21:46:16.810Z,102155.47
2022-08-26T21:48:50.355Z,102152.88
2022-08-26T21:51:20.373Z,102151.31
2022-08-26T21:53:47.446Z,102150.47
2022-08-26T21:56:16.683Z,102153.75
2022-08-26T21:58:44.493Z,102158.72
2022-08-26T22:01:14.963Z,102160.09
2022-08-26T22:03:46.754Z,102155.81
2022-08-26T22:06:22.233Z,102164.22
2022-08-26T22:08:49.213Z,102161.66
2022-08-26T22:11:17.052Z,102163.56
2022-08-26T22:13:45.213Z,102169.38
2022-08-26T22:16:15.312Z,102173.16
2022-08-26T22:18:44.186Z,102179.50
2022-08-26T22:21:20.294Z,102177.28
2022-08-26T22:23:50.392Z,102176.56
2022-08-26T22:26:25.543Z,102180.16
2022-08-26T22:28:58.730Z,102176.94
2022-08-26T22:31:37.673Z,102177.59
2022-08-26T22:34:11.522Z,102179.69
2022-08-26T22:36:43.673Z,102182.44
2022-08-26T22:39:15.505Z,102180.53
2022-08-26T22:41:43.702Z,102180.03
2022-08-26T22:44:11.913Z,102176.94
2022-08-26T22:46:42.299Z,102181.03
2022-08-26T22:49:11.526Z,102170.41
2022-08-26T22:51:38.672Z,102173.81
2022-08-26T22:54:05.957Z,102175.03
2022-08-26T22:56:33.225Z,102175.91
2022-08-26T22:59:00.077Z,102179.16
2022-08-26T23:01:26.949Z,102181.75
2022-08-26T23:03:55.236Z,102176.94
2022-08-26T23:06:21.955Z,102173.34
2022-08-26T23:08:49.438Z,102181.94
2022-08-26T23:11:16.470Z,102187.56
2022-08-26T23:13:43.178Z,102181.22
2022-08-26T23:16:12.232Z,102180.56
2022-08-26T23:18:40.907Z,102182.44
2022-08-26T23:21:08.086Z,102177.13
2022-08-26T23:23:35.680Z,102181.06
2022-08-26T23:26:06.157Z,102186.88
2022-08-26T23:28:33.790Z,102186.22
2022-08-26T23:31:00.543Z,102187.41
2022-08-26T23:33:47.443Z,102182.94
2022-08-26T23:36:17.585Z,102181.75
2022-08-26T23:38:48.562Z,102182.28
2022-08-26T23:41:21.398Z,102180.00
2022-08-26T23:43:48.271Z,102174.88
2022-08-26T23:46:15.389Z,102180.69
2022-08-26T23:48:42.144Z,102175.75
2022-08-26T23:51:28.060Z,102183.44
2022-08-26T23:53:55.156Z,102179.13
2022-08-26T23:56:21.968Z,102180.31
2022-08-26T23:58:48.667Z,102181.84
